createdAt,value
2022-09-30T00:00:29.481Z,15.27
2022-09-30T00:05:31.157Z,16.58
2022-09-30T00:10:32.763Z,15.68
2022-09-30T00:15:34.536Z,16.38
2022-09-30T00:20:37.233Z,15.68
2022-09-30T00:25:39.033Z,16.27
2022-09-30T00:30:41.089Z,15.10
2022-09-30T00:35:42.781Z,16.50
2022-09-30T00:40:44.653Z,14.38
2022-09-30T00:45:59.545Z,15.05
2022-09-30T00:51:02.750Z,14.73
2022-09-30T00:56:23.293Z,12.88
2022-09-30T01:01:25.214Z,14.65
2022-09-30T01:06:27.118Z,13.85
2022-09-30T01:11:29.180Z,15.50
2022-09-30T01:16:34.265Z,14.75
2022-09-30T01:21:54.665Z,14.07
2022-09-30T01:27:05.322Z,16.13
2022-09-30T01:32:22.010Z,15.55
2022-09-30T01:37:43.517Z,17.05
2022-09-30T01:42:53.549Z,14.13
2022-09-30T01:48:21.650Z,14.93
2022-09-30T01:53:38.332Z,18.48
2022-09-30T01:58:59.050Z,17.35
2022-09-30T02:04:07.228Z,14.40
2022-09-30T02:09:16.406Z,15.07
2022-09-30T02:14:21.956Z,19.92
2022-09-30T02:19:45.316Z,15.73
2022-09-30T02:24:50.673Z,17.27
2022-09-30T02:29:57.061Z,18.35
2022-09-30T02:35:05.814Z,17.73
2022-09-30T02:40:39.843Z,18.40
2022-09-30T02:46:18.758Z,16.10
2022-09-30T02:51:49.996Z,19.48
2022-09-30T02:57:19.323Z,17.75
2022-09-30T03:02:21.781Z,20.02
2022-09-30T03:07:24.054Z,18.92
2022-09-30T03:12:39.617Z,20.35
2022-09-30T03:18:08.226Z,18.00
2022-09-30T03:23:19.403Z,18.92
2022-09-30T03:28:34.788Z,22.73
2022-09-30T03:34:03.742Z,17.23
2022-09-30T03:39:18.985Z,19.52
2022-09-30T03:44:29.717Z,15.68
2022-09-30T03:49:55.913Z,17.30
2022-09-30T03:55:03.696Z,16.95
2022-09-30T04:00:07.005Z,19.85
2022-09-30T04:05:08.784Z,17.25
2022-09-30T04:10:11.841Z,18.90
2022-09-30T04:15:13.601Z,17.45
2022-09-30T04:20:15.450Z,17.42
2022-09-30T04:25:17.115Z,17.15
2022-09-30T04:30:23.871Z,18.73
2022-09-30T04:35:29.613Z,18.98
2022-09-30T04:40:31.254Z,19.35
2022-09-30T04:45:32.972Z,17.80
2022-09-30T04:50:34.724Z,20.08
2022-09-30T04:55:36.354Z,19.25
2022-09-30T05:00:38.530Z,18.80
2022-09-30T05:05:44.849Z,20.55
2022-09-30T05:10:55.083Z,20.58
2022-09-30T05:15:56.940Z,17.73
2022-09-30T05:20:58.737Z,26.50
2022-09-30T05:26:01.719Z,24.52
2022-09-30T05:31:05.955Z,20.90
2022-09-30T05:36:09.517Z,20.50
2022-09-30T05:41:13.533Z,23.02
2022-09-30T05:46:19.818Z,25.02
2022-09-30T05:51:22.083Z,19.45
2022-09-30T05:56:23.746Z,22.55
2022-09-30T06:01:25.469Z,20.27
2022-09-30T06:06:27.179Z,18.15
2022-09-30T06:11:28.878Z,23.30
2022-09-30T06:16:31.964Z,16.98
2022-09-30T06:21:33.785Z,18.88
2022-09-30T06:26:35.402Z,16.45
2022-09-30T06:31:37.372Z,15.13
2022-09-30T06:36:39.028Z,15.10
2022-09-30T06:41:43.940Z,15.77
2022-09-30T06:46:53.603Z,19.38
2022-09-30T06:51:56.023Z,15.68
2022-09-30T06:56:57.701Z,15.80
2022-09-30T07:01:59.441Z,15.82
2022-09-30T07:07:01.140Z,14.50
2022-09-30T07:12:02.765Z,16.98
2022-09-30T07:17:06.217Z,18.02
2022-09-30T07:22:26.679Z,14.88
2022-09-30T07:27:29.337Z,16.33
2022-09-30T07:32:31.078Z,17.23
2022-09-30T07:37:35.855Z,18.52
2022-09-30T07:42:45.357Z,17.42
2022-09-30T07:47:52.553Z,18.77
2022-09-30T07:52:56.272Z,17.13
2022-09-30T07:57:57.946Z,14.80
2022-09-30T08:02:59.579Z,17.70
2022-09-30T08:08:01.701Z,15.43
2022-09-30T08:13:05.690Z,17.67
2022-09-30T08:18:08.171Z,15.23
2022-09-30T08:23:09.963Z,16.95
2022-09-30T08:28:12.325Z,13.90
2022-09-30T08:33:14.132Z,14.30
2022-09-30T08:38:15.760Z,12.85
2022-09-30T08:43:35.664Z,12.05
2022-09-30T08:48:37.256Z,10.98
2022-09-30T08:53:43.784Z,10.35
2022-09-30T08:58:47.031Z,11.05
2022-09-30T09:03:48.788Z,9.90
2022-09-30T09:08:56.661Z,11.05
2022-09-30T09:14:24.782Z,9.10
2022-09-30T09:19:36.892Z,10.65
2022-09-30T09:24:47.246Z,8.55
2022-09-30T09:30:22.464Z,10.85
2022-09-30T09:36:06.842Z,9.30
2022-09-30T09:41:20.403Z,7.35
2022-09-30T09:46:48.147Z,10.60
2022-09-30T09:52:05.735Z,8.20
2022-09-30T09:57:12.024Z,11.50
2022-09-30T10:02:31.656Z,10.20
2022-09-30T10:07:34.397Z,7.97
2022-09-30T10:12:36.265Z,8.27
2022-09-30T10:17:38.361Z,7.78
2022-09-30T10:22:40.587Z,7.00
2022-09-30T10:27:53.412Z,6.57
2022-09-30T10:32:55.210Z,5.72
2022-09-30T10:37:59.349Z,5.97
2022-09-30T10:43:00.993Z,6.80
2022-09-30T10:48:07.398Z,5.57
2022-09-30T10:53:19.033Z,9.25
2022-09-30T10:58:26.471Z,3.83
2022-09-30T11:03:34.803Z,6.32
2022-09-30T11:08:44.819Z,3.30
2022-09-30T11:13:57.351Z,7.13
2022-09-30T11:19:16.201Z,6.07
2022-09-30T11:24:42.042Z,5.93
2022-09-30T11:30:07.779Z,4.82
2022-09-30T11:35:28.303Z,6.72
2022-09-30T11:40:36.980Z,9.20
2022-09-30T11:45:46.316Z,7.78
2022-09-30T11:51:20.366Z,5.78
2022-09-30T11:56:35.392Z,10.35
2022-09-30T12:01:45.987Z,4.45
2022-09-30T12:06:59.187Z,5.20
2022-09-30T12:12:15.289Z,6.10
2022-09-30T12:17:26.752Z,4.97
2022-09-30T12:22:40.151Z,7.53
2022-09-30T12:27:47.702Z,6.50
2022-09-30T12:33:00.054Z,6.30
2022-09-30T12:38:37.064Z,4.38
2022-09-30T12:44:03.544Z,3.50
2022-09-30T12:49:12.610Z,6.22
2022-09-30T12:54:19.569Z,4.35
2022-09-30T12:59:30.479Z,6.63
2022-09-30T13:04:34.424Z,3.83
2022-09-30T13:09:37.963Z,4.13
2022-09-30T13:14:43.900Z,4.05
2022-09-30T13:19:51.848Z,6.53
2022-09-30T13:25:05.469Z,8.32
2022-09-30T13:30:16.252Z,4.88
2022-09-30T13:35:34.370Z,5.97
2022-09-30T13:41:00.684Z,4.07
2022-09-30T13:46:22.338Z,4.50
2022-09-30T13:51:27.763Z,4.93
2022-09-30T13:56:37.323Z,6.10
2022-09-30T14:01:48.055Z,4.07
2022-09-30T14:07:12.495Z,5.53
2022-09-30T14:12:29.274Z,5.40
2022-09-30T14:17:46.267Z,4.18
2022-09-30T14:22:48.698Z,4.65
2022-09-30T14:28:16.153Z,5.38
2022-09-30T14:33:25.422Z,5.50
2022-09-30T14:38:29.922Z,4.63
2022-09-30T14:43:38.849Z,5.47
2022-09-30T14:48:45.527Z,3.95
2022-09-30T14:53:57.551Z,4.90
2022-09-30T14:59:00.874Z,4.32
2022-09-30T15:04:18.467Z,4.22
2022-09-30T15:09:20.116Z,3.88
2022-09-30T15:14:23.738Z,2.60
2022-09-30T15:19:28.278Z,2.42
2022-09-30T15:24:32.591Z,4.50
2022-09-30T15:29:34.387Z,3.55
2022-09-30T15:34:36.115Z,2.33
2022-09-30T15:40:04.182Z,2.85
2022-09-30T15:45:34.582Z,3.30
2022-09-30T15:50:49.025Z,3.95
2022-09-30T15:55:52.455Z,3.17
2022-09-30T16:01:09.260Z,2.10
2022-09-30T16:06:14.086Z,2.63
2022-09-30T16:11:27.735Z,4.72
2022-09-30T16:16:33.351Z,6.85
2022-09-30T16:21:45.393Z,4.30
2022-09-30T16:26:47.429Z,5.80
2022-09-30T16:31:51.440Z,3.65
2022-09-30T16:36:55.734Z,3.60
2022-09-30T16:41:57.367Z,5.53
2022-09-30T16:46:59.292Z,6.28
2022-09-30T16:52:01.060Z,8.52
2022-09-30T16:57:02.678Z,8.73
2022-09-30T17:02:05.428Z,9.02
2022-09-30T17:07:11.303Z,11.38
2022-09-30T17:12:13.123Z,14.10
2022-09-30T17:17:14.743Z,18.60
2022-09-30T17:22:16.324Z,22.42
2022-09-30T17:27:17.931Z,28.42
2022-09-30T17:32:19.540Z,27.55
2022-09-30T17:37:22.069Z,25.13
2022-09-30T17:42:42.270Z,20.77
2022-09-30T17:47:43.970Z,20.80
2022-09-30T17:52:45.647Z,17.25
2022-09-30T17:57:47.291Z,14.90
2022-09-30T18:02:49.045Z,14.98
2022-09-30T18:07:50.769Z,14.90
2022-09-30T18:12:54.702Z,20.27
2022-09-30T18:17:56.679Z,24.98
2022-09-30T18:22:58.334Z,20.60
2022-09-30T18:28:00.232Z,18.02
2022-09-30T18:33:03.033Z,15.43
2022-09-30T18:38:06.517Z,16.50
2022-09-30T18:43:13.404Z,16.70
2022-09-30T18:48:15.552Z,17.95
2022-09-30T18:53:22.306Z,18.13
2022-09-30T18:58:23.990Z,26.92
2022-09-30T19:03:29.383Z,37.33
2022-09-30T19:08:31.124Z,60.70
2022-09-30T19:13:32.736Z,24.48
2022-09-30T19:18:34.485Z,52.70
2022-09-30T19:23:36.766Z,73.60
2022-09-30T19:28:38.680Z,29.42
2022-09-30T19:33:48.487Z,37.97
2022-09-30T19:39:10.416Z,35.42
2022-09-30T19:44:18.694Z,30.85
2022-09-30T19:49:21.937Z,39.42
2022-09-30T19:54:36.271Z,35.80
2022-09-30T19:59:39.752Z,38.90
2022-09-30T20:04:42.158Z,37.50
2022-09-30T20:09:43.875Z,38.47
2022-09-30T20:15:04.068Z,57.33
2022-09-30T20:20:25.066Z,47.08
2022-09-30T20:25:26.761Z,48.72
2022-09-30T20:30:29.852Z,39.80
2022-09-30T20:35:35.322Z,33.20
2022-09-30T20:40:37.008Z,31.95
2022-09-30T20:45:41.184Z,35.30
2022-09-30T20:50:45.143Z,27.95
2022-09-30T20:55:46.768Z,30.13
2022-09-30T21:00:48.462Z,31.48
2022-09-30T21:05:53.467Z,28.33
2022-09-30T21:10:56.252Z,29.65
2022-09-30T21:16:02.454Z,29.35
2022-09-30T21:21:05.036Z,27.98
2022-09-30T21:26:10.291Z,29.80
2022-09-30T21:31:21.439Z,27.20
2022-09-30T21:36:24.168Z,26.08
2022-09-30T21:41:25.794Z,27.90
2022-09-30T21:46:27.447Z,27.02
2022-09-30T21:51:34.339Z,26.38
2022-09-30T21:56:36.996Z,24.73
2022-09-30T22:01:39.247Z,22.00
2022-09-30T22:06:40.933Z,23.52
2022-09-30T22:11:43.850Z,20.52
2022-09-30T22:16:45.793Z,21.58
2022-09-30T22:21:47.812Z,20.30
2022-09-30T22:26:49.414Z,20.80
2022-09-30T22:31:51.076Z,23.88
2022-09-30T22:37:11.853Z,20.40
2022-09-30T22:42:13.462Z,20.10
2022-09-30T22:47:15.110Z,21.33
2022-09-30T22:52:16.809Z,22.20
2022-09-30T22:57:18.474Z,21.50
2022-09-30T23:02:22.056Z,17.52
2022-09-30T23:07:23.771Z,21.80
2022-09-30T23:12:25.435Z,22.23
2022-09-30T23:17:27.140Z,24.48
2022-09-30T23:22:28.744Z,23.00
2022-09-30T23:27:30.349Z,22.30
2022-09-30T23:32:31.955Z,18.23
2022-09-30T23:37:33.594Z,21.63
2022-09-30T23:42:35.249Z,16.55
2022-09-30T23:47:37.345Z,14.10
2022-09-30T23:52:38.986Z,17.27
2022-09-30T23:57:41.091Z,14.57
